Address 0x82EE7EC3c27B1073A1EB492052676f0F6BD342c0 1

Overview

Balance:
2.265404018239074064 AVAX

AVAX Value:
$65.18 (@ $28.77/AVAX)
Txn Hash Method
Block
From
To
Value [Txn Fee]
0x389e14c12fb546f44bca72b304e0f218ddc6e1a940318588637f8b53c71f74b0Claim140955512022-04-30 14:01:0820 days 11 hrs ago0x82ee7ec3c27b1073a1eb492052676f0f6bd342c0OUT 0xeb6b44834e002ecdeadf9e61448b21ccc33284ca0 AVAX0.002278518756 69.641138113
0x814a04c800f870aa5b1ff7781c8cedfaf06fd68d8df74f2063c7745d2678e57fApprove140955352022-04-30 14:00:3620 days 11 hrs ago0x82ee7ec3c27b1073a1eb492052676f0f6bd342c0OUT 0xeff46b56fb421bc0b6438dc4ae84d945573c0d6d0 AVAX0.003398004247 73.169772766
0xd88b230956b620a178cb9d1b1438ca2db64de8aa4d9b5ecdcc566d37eb089f9aClaim140955182022-04-30 14:00:0220 days 11 hrs ago0x82ee7ec3c27b1073a1eb492052676f0f6bd342c0OUT 0xeb6b44834e002ecdeadf9e61448b21ccc33284ca0 AVAX0.006295879511 75.257351502
0x4212b7d0e85d0e230abdaf66a4c0e8e4f9b08fde6809b2aa5cef7d0c207bcc8dDeposit88886982021-12-30 0:20:42142 days 1 hr ago0x82ee7ec3c27b1073a1eb492052676f0f6bd342c0OUT 0x0d5550d52428e7e3175bfc9550207e4ad3859b1710 AVAX0.024431733 27
0xb0dc21fdf60167bf1527aba0864c7ccaa4aa4041e11a4a8e459fba6be5dc1704Deposit88886742021-12-30 0:19:56142 days 1 hr ago0x82ee7ec3c27b1073a1eb492052676f0f6bd342c0OUT 0x0d5550d52428e7e3175bfc9550207e4ad3859b1710 AVAX0.024431733 27
0x8ff7b417394d3160309106f62405a9c1b502b9e9b178643f56c3f7b7226a285fDeposit88886602021-12-30 0:19:29142 days 1 hr ago0x82ee7ec3c27b1073a1eb492052676f0f6bd342c0OUT 0x0d5550d52428e7e3175bfc9550207e4ad3859b1710 AVAX0.024568947 27
0x898a8387a44ae301a3ecaa1415206fd6c90a931498b79888dd833c23b25602c5Deposit88885712021-12-30 0:16:33142 days 1 hr ago0x82ee7ec3c27b1073a1eb492052676f0f6bd342c0OUT 0x0d5550d52428e7e3175bfc9550207e4ad3859b1710 AVAX0.024431733 27
0x36d5cb309cfb2033cb9899fbcc7c37b2d9cae8fc0d168da66f42fadb65a72c06Deposit88885592021-12-30 0:16:07142 days 1 hr ago0x82ee7ec3c27b1073a1eb492052676f0f6bd342c0OUT 0x0d5550d52428e7e3175bfc9550207e4ad3859b1710 AVAX0.024568623 27
0x89f01103e8b05cb9b4d11a6a30bb41ad499ac8a07479f359f0b62ef4f52c8af8Deposit88885312021-12-30 0:15:11142 days 1 hr ago0x82ee7ec3c27b1073a1eb492052676f0f6bd342c0OUT 0x0d5550d52428e7e3175bfc9550207e4ad3859b1710 AVAX0.024568947 27
0x8a4dae1996b2fe30cbcaa366dab89ba8c758941162f2dd1bfd075cb629f6b696Deposit88884272021-12-30 0:11:42142 days 1 hr ago0x82ee7ec3c27b1073a1eb492052676f0f6bd342c0OUT 0x0d5550d52428e7e3175bfc9550207e4ad3859b17100 AVAX0.024843375 27
0x41ee78efa96c575a4e2fd3126bcf7314b416bae889ab7463460bd58b5518132dDeposit88884072021-12-30 0:11:04142 days 1 hr ago0x82ee7ec3c27b1073a1eb492052676f0f6bd342c0OUT 0x0d5550d52428e7e3175bfc9550207e4ad3859b17100 AVAX0.024843375 27
0xea9c961a592ba39993eb5a61cfa7aad96832af11826812afc2e3b72dcd9b88ecDeposit88883912021-12-30 0:10:29142 days 1 hr ago0x82ee7ec3c27b1073a1eb492052676f0f6bd342c0OUT 0x0d5550d52428e7e3175bfc9550207e4ad3859b17100 AVAX0.024980589 27
0x9c51ef92e38f2721c0b6b32eacb83278b99bacb0cf136bf39a9f6952139a859dDeposit88883452021-12-30 0:08:59142 days 1 hr ago0x82ee7ec3c27b1073a1eb492052676f0f6bd342c0OUT 0x0d5550d52428e7e3175bfc9550207e4ad3859b17100 AVAX0.024706161 27
0x9879a44c003d872482afc595464074da6fe26eba2af8d34f36c9acc4a86d28b7Swap Exact Token...88881322021-12-30 0:01:50142 days 1 hr ago0x82ee7ec3c27b1073a1eb492052676f0f6bd342c0OUT Trader Joe: Router0 AVAX0.003659335591 25.560088228
0x2a76e83620a0afa6fbcae1b2032282138d04f940954c021ae15802e915407395Deposit88338312021-12-28 17:29:04143 days 8 hrs ago0x82ee7ec3c27b1073a1eb492052676f0f6bd342c0OUT 0x0d5550d52428e7e3175bfc9550207e4ad3859b17500 AVAX0.048766625 53
0x2e5649e945b43e82f9a37c561af66c94c8177cc9f4e738879e1efff8d682d617Swap Tokens For ...88337562021-12-28 17:26:37143 days 8 hrs ago0x82ee7ec3c27b1073a1eb492052676f0f6bd342c0OUT Trader Joe: Router0 AVAX0.006718758355 50.622793172
0x58b29a3489cf883524aed60c5521a1698fac632a4635c921428b9be5e532ab3aDeposit88247672021-12-28 12:25:31143 days 13 hrs ago0x82ee7ec3c27b1073a1eb492052676f0f6bd342c0OUT 0x0d5550d52428e7e3175bfc9550207e4ad3859b17500 AVAX0.023130175 25
0xe5e057102375329d0f031fa48ff2fce2ee6f53ab27b7b57d8b8e675824d569bcSwap Tokens For ...88247232021-12-28 12:24:06143 days 13 hrs ago0x82ee7ec3c27b1073a1eb492052676f0f6bd342c0OUT Trader Joe: Router0 AVAX0.00358175 25
0x55200d9938462491a888826e45ccae503bf65fc02582331fb218b4fb39212629Swap Exact Token...88246292021-12-28 12:20:57143 days 13 hrs ago0x82ee7ec3c27b1073a1eb492052676f0f6bd342c0OUT Trader Joe: Router0 AVAX0.0025916 25
0x5d4e06a93154a0a0abf647119a95619140806ed3161bba568ef844c07498f390Deposit88246132021-12-28 12:20:25143 days 13 hrs ago0x82ee7ec3c27b1073a1eb492052676f0f6bd342c0OUT 0x0d5550d52428e7e3175bfc9550207e4ad3859b17100 AVAX0.022875775 25
0x5d8f2bcc4869885b41468750e235553a96d0f7c63e61574d7947e29da6d67fbeDeposit88245832021-12-28 12:19:26143 days 13 hrs ago0x82ee7ec3c27b1073a1eb492052676f0f6bd342c0OUT 0x0d5550d52428e7e3175bfc9550207e4ad3859b17100 AVAX0.023003125 25
0xd2328aaea9fb8390dcdf8e5c0def319962f7369296d19a8b0df118fd23494c49Swap Exact Token...88245022021-12-28 12:16:41143 days 13 hrs ago0x82ee7ec3c27b1073a1eb492052676f0f6bd342c0OUT Trader Joe: Router0 AVAX0.003413125 25
0xb2d707ae88360d34e87146467a24f95512f213ab93bb44f291d429dda73da30bApprove88244732021-12-28 12:15:46143 days 13 hrs ago0x82ee7ec3c27b1073a1eb492052676f0f6bd342c0OUT Abracadabra.money: MIM Token0 AVAX0.001165275 25
0xe8cc7df1c6d132373742374c8455317497d7cdce94e97cf21c136f7e63b48420Deposit88000982021-12-27 22:37:44144 days 3 hrs ago0x82ee7ec3c27b1073a1eb492052676f0f6bd342c0OUT 0x0d5550d52428e7e3175bfc9550207e4ad3859b17500 AVAX0.023791118 26
0x46e2a8ec99024a036f92a9f5ff7d89a870596b9990649484adbbcf68d79a91c8Swap Tokens For ...87998372021-12-27 22:29:00144 days 3 hrs ago0x82ee7ec3c27b1073a1eb492052676f0f6bd342c0OUT Trader Joe: Router0 AVAX0.00358205 25
[ Download CSV Export 
Latest 6 internal transactions
Parent Txn Hash Block From To Value
0x9879a44c003d872482afc595464074da6fe26eba2af8d34f36c9acc4a86d28b788881322021-12-30 0:01:50142 days 1 hr ago Trader Joe: Router0x82ee7ec3c27b1073a1eb492052676f0f6bd342c0461.015964062599457039 AVAX
0x2e5649e945b43e82f9a37c561af66c94c8177cc9f4e738879e1efff8d682d61788337562021-12-28 17:26:37143 days 8 hrs ago Trader Joe: Router0x82ee7ec3c27b1073a1eb492052676f0f6bd342c0500 AVAX
0xe5e057102375329d0f031fa48ff2fce2ee6f53ab27b7b57d8b8e675824d569bc88247232021-12-28 12:24:06143 days 13 hrs ago Trader Joe: Router0x82ee7ec3c27b1073a1eb492052676f0f6bd342c0500 AVAX
0xd2328aaea9fb8390dcdf8e5c0def319962f7369296d19a8b0df118fd23494c4988245022021-12-28 12:16:41143 days 13 hrs ago Trader Joe: Router0x82ee7ec3c27b1073a1eb492052676f0f6bd342c0199.909058903319359711 AVAX
0x46e2a8ec99024a036f92a9f5ff7d89a870596b9990649484adbbcf68d79a91c887998372021-12-27 22:29:00144 days 3 hrs ago Trader Joe: Router0x82ee7ec3c27b1073a1eb492052676f0f6bd342c0500 AVAX
0x22230134cf71338f822099a26b4d31887bf79ec6cedf1367f26225bcaa3383b787869192021-12-27 15:11:25144 days 10 hrs ago 0x2ebfc9b4a6f950f1fea52cbaf11038e6b39f475a0x82ee7ec3c27b1073a1eb492052676f0f6bd342c00.7772 AVAX
[ Download CSV Export 
Loading

Contract Name:
0

Compiler Version
0

Optimization Enabled:
0

Other Settings:
-NA-
Block Transaction Gas Used Reward
Age Block Fee Address BC Fee Address Voting Power Jailed Incoming
Block Uncle Number Difficulty Gas Used Reward
Loading
Make sure to use the "Vote Down" button for any spammy posts, and the "Vote Up" for interesting conversations.